CFG560 EDDE-LEPA

Flight info

Callsign CFG560
Flight time 2h 9m
Altitude 36000
Route NEVKO1D NEVKO Q244 TABAT M736 DOSEL DCT EBEDA DCT BADVI DCT BERAS DCT OLPIX/N0447F370 DCT EKPEB DCT PIDAD DCT TALEP DCT RARQU DCT BALEN UT250 RIXOT
Aircraft A21N/M-SDE2E3FGHIRWXY/LB1

Departure

Time 2026-04-23 16:26
Airport Erfurt-Weimar Airport (EDDE)

Arrival

Time 2026-04-23 18:36
Airport Palma de Mallorca Airport (LEPA)
Time Latitude Longitude Altitude Speed Heading
2026-04-23 16:08 50.97582 10.96079 1033 ft 0 kts 223°
2026-04-23 16:18 50.97591 10.96092 1033 ft 4 kts 213°
2026-04-23 16:18 50.97613 10.96102 1033 ft 4 kts 162°
2026-04-23 16:19 50.97632 10.96079 1033 ft 4 kts 120°
2026-04-23 16:19 50.97642 10.96040 1033 ft 4 kts 104°
2026-04-23 16:19 50.97645 10.96016 1033 ft 0 kts 98°
2026-04-23 16:22 50.97643 10.96044 1033 ft 4 kts 98°
2026-04-23 16:22 50.97637 10.96111 1033 ft 8 kts 98°
2026-04-23 16:23 50.97632 10.96203 1033 ft 9 kts 91°
2026-04-23 16:23 50.97685 10.96251 1033 ft 11 kts
2026-04-23 16:23 50.97723 10.96351 1033 ft 13 kts 91°
2026-04-23 16:23 50.97713 10.96498 1032 ft 14 kts 97°
2026-04-23 16:24 50.97700 10.96661 1032 ft 16 kts 98°
2026-04-23 16:24 50.97684 10.96839 1032 ft 17 kts 97°
2026-04-23 16:24 50.97675 10.97032 1031 ft 18 kts 80°
2026-04-23 16:24 50.97698 10.97235 1026 ft 19 kts 84°
2026-04-23 16:25 50.97722 10.97450 1029 ft 20 kts 58°
2026-04-23 16:25 50.97790 10.97562 1024 ft 9 kts 30°
2026-04-23 16:25 50.97841 10.97521 1026 ft 10 kts 304°
2026-04-23 16:25 50.97853 10.97395 1027 ft 14 kts 275°
2026-04-23 16:26 50.97896 10.96881 1034 ft 84 kts 278°
2026-04-23 16:26 50.97998 10.95603 1034 ft 143 kts 278°
2026-04-23 16:26 50.98113 10.93930 1480 ft 150 kts 281°
2026-04-23 16:26 50.98251 10.92296 2161 ft 152 kts 282°
2026-04-23 16:27 50.98398 10.90536 2580 ft 169 kts 281°
2026-04-23 16:27 50.98551 10.88607 3041 ft 183 kts 281°
2026-04-23 16:27 50.98712 10.86511 3575 ft 199 kts 281°
2026-04-23 16:27 50.98885 10.84243 4103 ft 215 kts 281°
2026-04-23 16:28 50.99080 10.81791 4648 ft 233 kts 281°
2026-04-23 16:28 50.99291 10.79140 5254 ft 249 kts 281°
2026-04-23 16:28 50.99766 10.76496 5993 ft 251 kts 305°
2026-04-23 16:28 51.00982 10.74591 6790 ft 252 kts 330°
2026-04-23 16:29 51.02633 10.73660 7599 ft 256 kts 352°
2026-04-23 16:29 51.04418 10.73918 8420 ft 263 kts 15°
2026-04-23 16:29 51.06050 10.75325 9203 ft 273 kts 32°
2026-04-23 16:29 51.07414 10.77475 10044 ft 282 kts 52°
2026-04-23 16:30 51.08196 10.80403 10609 ft 302 kts 75°
2026-04-23 16:30 51.08123 10.83875 10910 ft 331 kts 101°
2026-04-23 16:30 51.07094 10.87288 11189 ft 357 kts 124°
2026-04-23 16:30 51.05259 10.90107 11458 ft 380 kts 144°
2026-04-23 16:31 51.02928 10.92292 11745 ft 398 kts 147°
2026-04-23 16:31 51.00542 10.94703 12089 ft 413 kts 145°
2026-04-23 16:31 50.98106 10.97202 12669 ft 419 kts 145°
2026-04-23 16:31 50.95643 10.99694 13324 ft 422 kts 146°
2026-04-23 16:32 50.93152 11.02180 13957 ft 425 kts 146°
2026-04-23 16:32 50.90637 11.04679 14523 ft 428 kts 146°
2026-04-23 16:32 50.88106 11.07190 15097 ft 431 kts 146°
2026-04-23 16:32 50.85554 11.09706 15698 ft 433 kts 146°
2026-04-23 16:33 50.82983 11.12231 16312 ft 436 kts 146°
2026-04-23 16:33 50.80395 11.14769 16938 ft 439 kts 146°
2026-04-23 16:33 50.77793 11.17324 17584 ft 441 kts 146°
2026-04-23 16:33 50.75177 11.19893 18207 ft 444 kts 146°
2026-04-23 16:34 50.72547 11.22473 18776 ft 447 kts 146°
2026-04-23 16:34 50.69927 11.25042 19306 ft 449 kts 146°
2026-04-23 16:34 50.67225 11.27685 19824 ft 452 kts 145°
2026-04-23 16:34 50.64541 11.30307 20315 ft 456 kts 145°
2026-04-23 16:35 50.61875 11.32911 20790 ft 458 kts 145°
2026-04-23 16:35 50.59124 11.35592 21283 ft 461 kts 145°
2026-04-23 16:35 50.56392 11.38254 21745 ft 463 kts 145°
2026-04-23 16:35 50.53642 11.40927 22213 ft 466 kts 145°
2026-04-23 16:36 50.50916 11.43574 22692 ft 468 kts 144°
2026-04-23 16:36 50.48102 11.46302 23195 ft 470 kts 144°
2026-04-23 16:36 50.45312 11.49001 23684 ft 473 kts 144°
2026-04-23 16:36 50.42540 11.51681 24095 ft 475 kts 144°
2026-04-23 16:37 50.39719 11.54405 24499 ft 477 kts 144°
2026-04-23 16:37 50.36883 11.57139 24884 ft 479 kts 144°
2026-04-23 16:37 50.34041 11.59873 25324 ft 480 kts 144°
2026-04-23 16:37 50.31197 11.62603 25819 ft 478 kts 144°
2026-04-23 16:38 50.28368 11.65314 26340 ft 477 kts 144°
2026-04-23 16:38 50.25545 11.68018 26871 ft 475 kts 144°
2026-04-23 16:38 50.22735 11.70708 27391 ft 473 kts 143°
2026-04-23 16:38 50.19937 11.73385 27903 ft 471 kts 143°
2026-04-23 16:39 50.17150 11.76048 28417 ft 469 kts 143°
2026-04-23 16:39 50.14368 11.78701 28906 ft 467 kts 143°
2026-04-23 16:39 50.11596 11.81335 29404 ft 466 kts 143°
2026-04-23 16:39 50.08838 11.83949 29886 ft 464 kts 143°
2026-04-23 16:40 50.06080 11.86562 30354 ft 462 kts 143°
2026-04-23 16:40 50.03336 11.89151 30749 ft 461 kts 143°
2026-04-23 16:40 50.00601 11.91733 31194 ft 458 kts 143°
2026-04-23 16:40 49.97879 11.94299 31568 ft 457 kts 142°
2026-04-23 16:41 49.95169 11.96859 31870 ft 456 kts 142°
2026-04-23 16:41 49.92456 11.99415 32199 ft 455 kts 142°
2026-04-23 16:41 49.89750 12.01967 32502 ft 454 kts 142°
2026-04-23 16:41 49.87047 12.04511 32816 ft 454 kts 142°
2026-04-23 16:42 49.84353 12.07044 33122 ft 453 kts 142°
2026-04-23 16:42 49.81656 12.09572 33423 ft 452 kts 142°
2026-04-23 16:42 49.78996 12.12059 33711 ft 451 kts 142°
2026-04-23 16:42 49.76314 12.14571 34015 ft 450 kts 142°
2026-04-23 16:43 49.73606 12.17101 34310 ft 449 kts 142°
2026-04-23 16:43 49.70932 12.19597 34553 ft 448 kts 142°
2026-04-23 16:43 49.68267 12.22076 34754 ft 448 kts 142°
2026-04-23 16:43 49.65632 12.24530 34957 ft 448 kts 142°
2026-04-23 16:44 49.62929 12.27051 35115 ft 449 kts 142°
2026-04-23 16:44 49.60286 12.29505 35275 ft 450 kts 142°
2026-04-23 16:44 49.57568 12.32028 35452 ft 450 kts 142°
2026-04-23 16:44 49.54918 12.34478 35623 ft 450 kts 142°
2026-04-23 16:45 49.52226 12.36955 35783 ft 450 kts 142°
2026-04-23 16:45 49.49508 12.39466 35960 ft 450 kts 142°
2026-04-23 16:45 49.46864 12.41910 36123 ft 449 kts 143°
2026-04-23 16:45 49.44148 12.44414 36253 ft 450 kts 143°
2026-04-23 16:46 49.38791 12.49336 36255 ft 448 kts 143°
2026-04-23 16:46 49.33130 12.53371 36238 ft 462 kts 160°
2026-04-23 16:47 49.29916 12.54050 36253 ft 472 kts 173°
2026-04-23 16:47 49.26613 12.53954 36255 ft 477 kts 178°
2026-04-23 16:47 49.19970 12.53478 36237 ft 478 kts 177°
2026-04-23 16:48 49.13327 12.53106 36240 ft 477 kts 177°
2026-04-23 16:48 49.06681 12.52780 36247 ft 477 kts 176°
2026-04-23 16:49 49.00048 12.52350 36246 ft 477 kts 178°
2026-04-23 16:49 48.93420 12.51839 36252 ft 477 kts 178°
2026-04-23 16:50 48.86790 12.51328 36254 ft 477 kts 178°
2026-04-23 16:50 48.80167 12.50823 36252 ft 477 kts 178°
2026-04-23 16:51 48.73529 12.50317 36260 ft 477 kts 178°
2026-04-23 16:51 48.66898 12.49812 36253 ft 477 kts 178°
2026-04-23 16:52 48.60316 12.49314 36256 ft 477 kts 178°
2026-04-23 16:52 48.53687 12.48813 36259 ft 477 kts 178°
2026-04-23 16:53 48.47056 12.48062 36256 ft 481 kts 186°
2026-04-23 16:53 48.43819 12.46676 36255 ft 487 kts 199°
2026-04-23 16:53 48.40825 12.44260 36257 ft 492 kts 213°
2026-04-23 16:54 48.35568 12.37663 36258 ft 492 kts 220°
2026-04-23 16:54 48.30392 12.30932 36259 ft 492 kts 219°
2026-04-23 16:55 48.25177 12.24303 36262 ft 492 kts 219°
2026-04-23 16:55 48.19945 12.17695 36264 ft 491 kts 219°
2026-04-23 16:56 48.14342 12.12074 36253 ft 487 kts 200°
2026-04-23 16:56 48.07913 12.09113 36259 ft 483 kts 192°
2026-04-23 16:57 48.01426 12.06441 36267 ft 483 kts 192°
2026-04-23 16:57 47.94974 12.03709 36262 ft 481 kts 192°
2026-04-23 16:58 47.88530 12.00985 36263 ft 481 kts 192°
2026-04-23 16:58 47.82084 11.98270 36261 ft 481 kts 192°
2026-04-23 16:59 47.75639 11.95556 36263 ft 481 kts 192°
2026-04-23 16:59 47.69224 11.92657 36264 ft 482 kts 194°
2026-04-23 17:00 47.62834 11.89619 36263 ft 482 kts 194°
2026-04-23 17:00 47.56438 11.86583 36271 ft 483 kts 195°
2026-04-23 17:01 47.50036 11.83556 36265 ft 484 kts 195°
2026-04-23 17:01 47.43615 11.80533 36259 ft 484 kts 195°
2026-04-23 17:02 47.38288 11.78026 36254 ft 483 kts 195°
2026-04-23 17:02 47.30695 11.75659 36246 ft 478 kts 185°
2026-04-23 17:03 47.25218 11.74433 36242 ft 478 kts 185°
2026-04-23 17:03 47.18644 11.72924 36242 ft 479 kts 186°
2026-04-23 17:04 47.12037 11.71400 36244 ft 481 kts 186°
2026-04-23 17:04 47.05431 11.69871 36233 ft 480 kts 186°
2026-04-23 17:05 46.98974 11.67284 36222 ft 486 kts 202°
2026-04-23 17:05 46.92844 11.63121 36338 ft 486 kts 204°
2026-04-23 17:06 46.89788 11.61026 36549 ft 484 kts 203°
2026-04-23 17:06 46.86731 11.58967 36749 ft 483 kts 203°
2026-04-23 17:06 46.83681 11.56929 36876 ft 482 kts 203°
2026-04-23 17:06 46.80638 11.54898 37100 ft 480 kts 203°
2026-04-23 17:07 46.77602 11.52872 37352 ft 478 kts 203°
2026-04-23 17:07 46.74589 11.50870 37598 ft 475 kts 203°
2026-04-23 17:07 46.71584 11.48874 37784 ft 473 kts 203°
2026-04-23 17:07 46.68632 11.46752 37935 ft 473 kts 209°
2026-04-23 17:08 46.65892 11.44238 38084 ft 471 kts 213°
2026-04-23 17:08 46.63159 11.41609 38148 ft 471 kts 213°
2026-04-23 17:08 46.57699 11.36316 38102 ft 471 kts 213°
2026-04-23 17:09 46.52243 11.31094 38083 ft 469 kts 213°
2026-04-23 17:09 46.46782 11.25886 38086 ft 469 kts 213°
2026-04-23 17:10 46.41323 11.20700 38141 ft 470 kts 213°
2026-04-23 17:10 46.38583 11.18100 38246 ft 472 kts 213°
2026-04-23 17:10 46.35832 11.15490 38253 ft 473 kts 213°
2026-04-23 17:11 46.30320 11.10265 38257 ft 473 kts 213°
2026-04-23 17:11 46.24808 11.05055 38234 ft 473 kts 213°
2026-04-23 17:12 46.19289 10.99869 38209 ft 472 kts 213°
2026-04-23 17:12 46.13783 10.94683 38205 ft 473 kts 213°
2026-04-23 17:13 46.08272 10.89503 38189 ft 473 kts 213°
2026-04-23 17:13 46.02746 10.84338 38180 ft 474 kts 213°
2026-04-23 17:14 45.97208 10.79175 38177 ft 474 kts 213°
2026-04-23 17:14 45.91670 10.74023 38184 ft 474 kts 213°
2026-04-23 17:15 45.86120 10.68882 38169 ft 475 kts 212°
2026-04-23 17:15 45.80567 10.63751 38171 ft 475 kts 212°
2026-04-23 17:16 45.75013 10.58623 38164 ft 475 kts 212°
2026-04-23 17:16 45.69466 10.53497 38174 ft 474 kts 212°
2026-04-23 17:17 45.63970 10.48432 38156 ft 472 kts 212°
2026-04-23 17:17 45.58441 10.43350 38146 ft 472 kts 212°
2026-04-23 17:18 45.50140 10.35757 38140 ft 473 kts 212°
2026-04-23 17:19 45.44621 10.30722 38141 ft 470 kts 212°
2026-04-23 17:19 45.39111 10.25711 38141 ft 470 kts 212°
2026-04-23 17:20 45.33596 10.20698 38146 ft 470 kts 212°
2026-04-23 17:21 45.22556 10.10715 38148 ft 470 kts 212°
2026-04-23 17:21 45.14275 10.03251 38152 ft 470 kts 211°
2026-04-23 17:22 45.06001 9.95823 38155 ft 469 kts 211°
2026-04-23 17:23 44.97730 9.88420 38143 ft 469 kts 211°
2026-04-23 17:24 44.89483 9.81065 38136 ft 469 kts 211°
2026-04-23 17:24 44.81199 9.73703 38144 ft 469 kts 211°
2026-04-23 17:25 44.72926 9.66374 38148 ft 467 kts 211°
2026-04-23 17:26 44.61907 9.56653 38172 ft 467 kts 211°
2026-04-23 17:27 44.53680 9.49431 38184 ft 463 kts 211°
2026-04-23 17:27 44.48216 9.44646 38176 ft 461 kts 211°
2026-04-23 17:28 44.42800 9.39904 38175 ft 459 kts 211°
2026-04-23 17:28 44.37386 9.35179 38208 ft 459 kts 211°
2026-04-23 17:29 44.31966 9.30462 38197 ft 459 kts 211°
2026-04-23 17:30 44.24740 9.24189 38188 ft 459 kts 211°
2026-04-23 17:30 44.15709 9.16375 38191 ft 460 kts 211°
2026-04-23 17:31 44.10279 9.11687 38192 ft 459 kts 211°
2026-04-23 17:31 44.04840 9.07007 38189 ft 459 kts 211°
2026-04-23 17:32 43.99251 9.02768 38187 ft 458 kts 202°
2026-04-23 17:32 43.93367 8.99339 38187 ft 458 kts 202°
2026-04-23 17:33 43.87513 8.95863 38191 ft 458 kts 202°
2026-04-23 17:33 43.81670 8.92359 38193 ft 458 kts 203°
2026-04-23 17:34 43.75820 8.88851 38192 ft 458 kts 203°
2026-04-23 17:35 43.67052 8.83608 38193 ft 459 kts 203°
2026-04-23 17:35 43.58243 8.78364 38199 ft 460 kts 203°
2026-04-23 17:36 43.52363 8.74871 38199 ft 460 kts 203°
2026-04-23 17:36 43.46554 8.71163 38184 ft 461 kts 212°
2026-04-23 17:37 43.41568 8.65612 38200 ft 462 kts 223°
2026-04-23 17:38 43.34480 8.56707 38198 ft 462 kts 223°
2026-04-23 17:38 43.29694 8.50806 38200 ft 464 kts 223°
2026-04-23 17:39 43.24881 8.44885 38201 ft 465 kts 223°
2026-04-23 17:39 43.20059 8.38970 38199 ft 465 kts 223°
2026-04-23 17:40 43.15234 8.33057 38195 ft 465 kts 223°
2026-04-23 17:40 43.10423 8.27168 38192 ft 463 kts 223°
2026-04-23 17:41 43.05619 8.21306 38191 ft 463 kts 223°
2026-04-23 17:41 42.98401 8.12537 38192 ft 463 kts 223°
2026-04-23 17:42 42.91187 8.03791 38192 ft 462 kts 223°
2026-04-23 17:43 42.86372 7.97975 38189 ft 462 kts 223°
2026-04-23 17:43 42.81599 7.92210 38186 ft 461 kts 224°
2026-04-23 17:44 42.76791 7.86423 38191 ft 461 kts 224°
2026-04-23 17:44 42.69574 7.77764 38183 ft 461 kts 224°
2026-04-23 17:45 42.62351 7.69118 38189 ft 462 kts 224°
2026-04-23 17:46 42.55111 7.60486 38185 ft 461 kts 224°
2026-04-23 17:46 42.50292 7.54751 38180 ft 460 kts 225°
2026-04-23 17:47 42.45475 7.49034 38187 ft 460 kts 225°
2026-04-23 17:48 42.38248 7.40473 38185 ft 460 kts 224°
2026-04-23 17:48 42.33414 7.34791 38180 ft 460 kts 225°
2026-04-23 17:49 42.28610 7.29157 38183 ft 460 kts 225°
2026-04-23 17:49 42.23782 7.23480 38183 ft 460 kts 225°
2026-04-23 17:50 42.18942 7.17811 38187 ft 460 kts 225°
2026-04-23 17:50 42.11692 7.09332 38185 ft 460 kts 225°
2026-04-23 17:51 42.06854 7.03682 38186 ft 460 kts 225°
2026-04-23 17:52 41.99660 6.95137 38184 ft 459 kts 227°
2026-04-23 17:52 41.93354 6.87399 38186 ft 458 kts 227°
2026-04-23 17:53 41.86322 6.78801 38179 ft 457 kts 227°
2026-04-23 17:54 41.81629 6.73061 38187 ft 457 kts 227°
2026-04-23 17:54 41.74576 6.64487 38189 ft 456 kts 228°
2026-04-23 17:55 41.67531 6.55935 38181 ft 456 kts 228°
2026-04-23 17:56 41.62832 6.50243 38184 ft 456 kts 228°
2026-04-23 17:56 41.55773 6.41733 38168 ft 455 kts 228°
2026-04-23 17:57 41.51071 6.36069 38180 ft 455 kts 228°
2026-04-23 17:58 41.44008 6.27602 38182 ft 455 kts 228°
2026-04-23 17:58 41.39326 6.21998 38163 ft 455 kts 228°
2026-04-23 17:59 41.34621 6.16375 38179 ft 454 kts 228°
2026-04-23 17:59 41.29926 6.10769 38182 ft 454 kts 228°
2026-04-23 18:00 41.25225 6.05175 38170 ft 452 kts 228°
2026-04-23 18:00 41.20542 5.99596 38181 ft 452 kts 228°
2026-04-23 18:01 41.15870 5.94042 38179 ft 449 kts 228°
2026-04-23 18:01 41.11225 5.88547 38180 ft 449 kts 228°
2026-04-23 18:02 41.06541 5.83021 38176 ft 449 kts 227°
2026-04-23 18:02 41.01866 5.77509 38174 ft 449 kts 228°
2026-04-23 18:03 40.97213 5.72037 38171 ft 449 kts 228°
2026-04-23 18:03 40.93013 5.66094 38170 ft 435 kts 240°
2026-04-23 18:04 40.89556 5.59592 38167 ft 434 kts 241°
2026-04-23 18:04 40.86080 5.53053 38171 ft 435 kts 241°
2026-04-23 18:05 40.82576 5.46509 38171 ft 435 kts 241°
2026-04-23 18:05 40.79089 5.40012 38171 ft 435 kts 241°
2026-04-23 18:06 40.75576 5.33503 38170 ft 433 kts 241°
2026-04-23 18:06 40.72089 5.27054 38140 ft 432 kts 240°
2026-04-23 18:06 40.70348 5.23843 37346 ft 433 kts 240°
2026-04-23 18:07 40.68587 5.20593 36440 ft 437 kts 240°
2026-04-23 18:07 40.66817 5.17331 35747 ft 437 kts 240°
2026-04-23 18:07 40.65049 5.14079 35107 ft 436 kts 241°
2026-04-23 18:07 40.63279 5.10824 34423 ft 437 kts 241°
2026-04-23 18:08 40.62107 5.08669 33914 ft 438 kts 241°
2026-04-23 18:08 40.59733 5.04304 32889 ft 439 kts 241°
2026-04-23 18:08 40.57955 5.01030 32124 ft 440 kts 241°
2026-04-23 18:08 40.56173 4.97757 31362 ft 441 kts 241°
2026-04-23 18:09 40.54380 4.94475 30590 ft 442 kts 240°
2026-04-23 18:09 40.52580 4.91186 29733 ft 444 kts 240°
2026-04-23 18:09 40.50775 4.87887 28789 ft 445 kts 240°
2026-04-23 18:09 40.48962 4.84580 27890 ft 447 kts 240°
2026-04-23 18:10 40.47145 4.81268 26963 ft 448 kts 240°
2026-04-23 18:10 40.45319 4.77945 26053 ft 450 kts 240°
2026-04-23 18:10 40.43481 4.74605 25153 ft 451 kts 239°
2026-04-23 18:10 40.41645 4.71268 24357 ft 450 kts 239°
2026-04-23 18:11 40.39809 4.67944 23526 ft 450 kts 239°
2026-04-23 18:11 40.37980 4.64632 22803 ft 445 kts 239°
2026-04-23 18:11 40.36137 4.61292 22429 ft 456 kts 239°
2026-04-23 18:11 40.34272 4.57921 22046 ft 455 kts 239°
2026-04-23 18:12 40.32423 4.54582 21552 ft 451 kts 238°
2026-04-23 18:12 40.30581 4.51262 21057 ft 448 kts 238°
2026-04-23 18:12 40.28755 4.47972 20554 ft 445 kts 238°
2026-04-23 18:12 40.26939 4.44705 20065 ft 442 kts 238°
2026-04-23 18:13 40.25135 4.41463 19586 ft 439 kts 238°
2026-04-23 18:13 40.23366 4.38278 19120 ft 437 kts 237°
2026-04-23 18:13 40.21581 4.35068 18647 ft 434 kts 237°
2026-04-23 18:13 40.19806 4.31884 18143 ft 431 kts 237°
2026-04-23 18:14 40.18039 4.28718 17613 ft 428 kts 237°
2026-04-23 18:14 40.16288 4.25594 17091 ft 424 kts 237°
2026-04-23 18:14 40.14547 4.22490 16579 ft 421 kts 237°
2026-04-23 18:14 40.12825 4.19417 16055 ft 418 kts 237°
2026-04-23 18:15 40.11116 4.16372 15567 ft 413 kts 237°
2026-04-23 18:15 40.09424 4.13360 15080 ft 410 kts 237°
2026-04-23 18:15 40.07746 4.10371 14600 ft 407 kts 237°
2026-04-23 18:15 40.06075 4.07401 14129 ft 404 kts 237°
2026-04-23 18:16 40.04418 4.04458 13629 ft 401 kts 237°
2026-04-23 18:16 40.02772 4.01533 13106 ft 398 kts 237°
2026-04-23 18:16 40.01139 3.98637 12635 ft 396 kts 237°
2026-04-23 18:17 39.97910 3.92916 12125 ft 378 kts 237°
2026-04-23 18:17 39.96384 3.90214 12098 ft 375 kts 237°
2026-04-23 18:17 39.94789 3.87377 12119 ft 398 kts 237°
2026-04-23 18:17 39.93138 3.84450 12128 ft 401 kts 237°
2026-04-23 18:18 39.91481 3.81529 12131 ft 401 kts 237°
2026-04-23 18:18 39.89820 3.78602 12124 ft 401 kts 237°
2026-04-23 18:18 39.88178 3.75716 12127 ft 401 kts 237°
2026-04-23 18:18 39.86514 3.72788 12127 ft 401 kts 237°
2026-04-23 18:19 39.84858 3.69872 12123 ft 400 kts 237°
2026-04-23 18:19 39.83249 3.67048 12121 ft 380 kts 237°
2026-04-23 18:19 39.81679 3.64297 12121 ft 377 kts 237°
2026-04-23 18:19 39.80163 3.61638 12116 ft 357 kts 237°
2026-04-23 18:20 39.78688 3.59058 12121 ft 355 kts 237°
2026-04-23 18:20 39.77216 3.56480 12125 ft 355 kts 237°
2026-04-23 18:20 39.75747 3.53906 12126 ft 355 kts 237°
2026-04-23 18:20 39.74279 3.51338 12142 ft 349 kts 237°
2026-04-23 18:21 39.72849 3.48841 12146 ft 343 kts 237°
2026-04-23 18:21 39.71427 3.46357 12130 ft 343 kts 237°
2026-04-23 18:21 39.70017 3.43862 12122 ft 342 kts 240°
2026-04-23 18:21 39.68873 3.41228 12126 ft 325 kts 247°
2026-04-23 18:22 39.67883 3.38645 12126 ft 323 kts 248°
2026-04-23 18:22 39.66884 3.36007 12128 ft 327 kts 248°
2026-04-23 18:22 39.65873 3.33358 12128 ft 328 kts 247°
2026-04-23 18:22 39.64858 3.30714 12124 ft 327 kts 247°
2026-04-23 18:23 39.64183 3.28964 12126 ft 327 kts 247°
2026-04-23 18:23 39.61800 3.22791 12120 ft 327 kts 247°
2026-04-23 18:24 39.59763 3.17533 11591 ft 325 kts 247°
2026-04-23 18:24 39.58762 3.14943 11220 ft 318 kts 247°
2026-04-23 18:24 39.57781 3.12414 10829 ft 311 kts 247°
2026-04-23 18:25 39.56193 3.08322 10216 ft 301 kts 247°
2026-04-23 18:25 39.54948 3.05116 9706 ft 294 kts 246°
2026-04-23 18:25 39.54049 3.02803 9322 ft 289 kts 246°
2026-04-23 18:25 39.53151 3.00495 8936 ft 285 kts 246°
2026-04-23 18:26 39.52265 2.98217 8551 ft 282 kts 246°
2026-04-23 18:26 39.51382 2.95956 8182 ft 280 kts 246°
2026-04-23 18:26 39.50503 2.93704 7814 ft 280 kts 246°
2026-04-23 18:26 39.49629 2.91466 7445 ft 277 kts 246°
2026-04-23 18:27 39.48765 2.89254 7084 ft 274 kts 246°
2026-04-23 18:27 39.47904 2.87050 6765 ft 278 kts 246°
2026-04-23 18:27 39.47026 2.84798 6507 ft 281 kts 245°
2026-04-23 18:27 39.46142 2.82540 6249 ft 281 kts 245°
2026-04-23 18:28 39.45255 2.80285 6000 ft 281 kts 246°
2026-04-23 18:28 39.44372 2.78028 5750 ft 280 kts 245°
2026-04-23 18:28 39.43562 2.75746 5496 ft 280 kts 254°
2026-04-23 18:28 39.43198 2.73305 5218 ft 273 kts 264°
2026-04-23 18:29 39.42972 2.70888 4899 ft 268 kts 264°
2026-04-23 18:29 39.42753 2.68524 4575 ft 262 kts 264°
2026-04-23 18:29 39.42535 2.66211 4230 ft 256 kts 263°
2026-04-23 18:29 39.42320 2.63940 3886 ft 252 kts 263°
2026-04-23 18:30 39.42105 2.61708 3540 ft 248 kts 263°
2026-04-23 18:30 39.41891 2.59527 3173 ft 240 kts 263°
2026-04-23 18:30 39.41706 2.57415 2810 ft 232 kts 270°
2026-04-23 18:30 39.42139 2.55494 2538 ft 222 kts 304°
2026-04-23 18:31 39.43232 2.54171 2314 ft 213 kts 335°
2026-04-23 18:31 39.44618 2.53669 2271 ft 205 kts
2026-04-23 18:31 39.45995 2.54002 2283 ft 200 kts 26°
2026-04-23 18:31 39.47073 2.55042 2296 ft 195 kts 49°
2026-04-23 18:32 39.47851 2.56445 2305 ft 190 kts 60°
2026-04-23 18:32 39.48521 2.57919 2287 ft 192 kts 59°
2026-04-23 18:32 39.49205 2.59382 2103 ft 183 kts 60°
2026-04-23 18:32 39.49838 2.60728 1869 ft 168 kts 62°
2026-04-23 18:33 39.50425 2.61973 1663 ft 155 kts 61°
2026-04-23 18:33 39.50968 2.63125 1452 ft 145 kts 61°
2026-04-23 18:33 39.51450 2.64145 1251 ft 125 kts 62°
2026-04-23 18:33 39.51898 2.65088 1101 ft 119 kts 62°
2026-04-23 18:34 39.52338 2.66011 918 ft 123 kts 60°
2026-04-23 18:34 39.52776 2.66962 759 ft 123 kts 60°
2026-04-23 18:34 39.53231 2.67882 586 ft 121 kts 61°
2026-04-23 18:34 39.53671 2.68829 435 ft 123 kts 61°
2026-04-23 18:35 39.54122 2.69797 274 ft 128 kts 59°
2026-04-23 18:35 39.54573 2.70761 117 ft 126 kts 60°
2026-04-23 18:35 39.55021 2.71710 44 ft 117 kts 59°
2026-04-23 18:35 39.55368 2.72447 43 ft 71 kts 59°
2026-04-23 18:36 39.55548 2.72829 44 ft 39 kts 56°
2026-04-23 18:36 39.55663 2.73068 44 ft 18 kts 59°
2026-04-23 18:36 39.55716 2.73225 42 ft 20 kts 83°
2026-04-23 18:36 39.55719 2.73413 44 ft 22 kts 88°
2026-04-23 18:37 39.55692 2.73525 44 ft 13 kts 174°
2026-04-23 18:37 39.55603 2.73513 42 ft 15 kts 150°
2026-04-23 18:37 39.55543 2.73563 44 ft 16 kts 150°
2026-04-23 18:37 39.55408 2.73669 44 ft 18 kts 150°
2026-04-23 18:38 39.55331 2.73727 44 ft 20 kts 148°
2026-04-23 18:38 39.55211 2.73823 44 ft 16 kts 155°
2026-04-23 18:38 39.55164 2.73780 44 ft 10 kts 254°
2026-04-23 18:38 39.55176 2.73690 44 ft 12 kts 252°
2026-04-23 18:39 39.55151 2.73634 44 ft 10 kts 235°
2026-04-23 18:39 39.55111 2.73550 43 ft 4 kts 238°
2026-04-23 18:39 39.55094 2.73522 44 ft 5 kts 208°
2026-04-23 18:39 39.55059 2.73530 42 ft 3 kts 164°
2026-04-23 18:40 39.55044 2.73536 44 ft 0 kts 165°